Time;durP1;ratioP1;P1;durP2;ratioP2;P2;SDS_P1;SDS_P2;PMS_P1;PMS_P2;Temp;Humidity;BMP_temperature;BMP_pressure;BME280_temperature;BME280_humidity;BME280_pressure;Samples;Min_cycle;Max_cycle;Signal;HPM_P1;HPM_P2
2022/10/19 00:02:21;;;;;;;3.20;2.10;;;;;;;;;;6185734;23;20322;-74
2022/10/19 00:04:47;;;;;;;2.70;2.50;;;;;;;;;;6190415;23;20020;-76
2022/10/19 00:07:12;;;;;;;2.67;2.38;;;;;;;;;;6212334;23;20036;-74
2022/10/19 00:09:38;;;;;;;6.55;2.60;;;;;;;;;;6213842;23;20065;-80
2022/10/19 00:12:04;;;;;;;2.83;2.53;;;;;;;;;;6212473;23;20036;-81
2022/10/19 00:14:30;;;;;;;2.90;2.70;;;;;;;;;;6212192;23;20059;-80
2022/10/19 00:16:57;;;;;;;3.47;2.60;;;;;;;;;;6211541;23;20030;-79
2022/10/19 00:19:23;;;;;;;2.85;2.63;;;;;;;;;;6212024;23;20008;-78
2022/10/19 00:21:49;;;;;;;2.55;2.35;;;;;;;;;;6160363;23;20012;-78
2022/10/19 00:24:15;;;;;;;2.67;2.47;;;;;;;;;;6212072;23;20349;-80
2022/10/19 00:26:41;;;;;;;5.63;2.80;;;;;;;;;;6212004;23;20048;-79
2022/10/19 00:29:07;;;;;;;2.90;2.63;;;;;;;;;;6158906;23;20361;-80
2022/10/19 00:31:33;;;;;;;5.68;2.60;;;;;;;;;;6210816;23;20024;-80
2022/10/19 00:33:59;;;;;;;3.28;2.83;;;;;;;;;;6186286;23;20059;-80
2022/10/19 00:36:26;;;;;;;5.43;2.70;;;;;;;;;;6212328;23;20401;-80
2022/10/19 00:38:52;;;;;;;3.03;2.72;;;;;;;;;;6215615;23;20015;-78
2022/10/19 00:41:18;;;;;;;2.90;2.70;;;;;;;;;;6197952;23;20016;-78
2022/10/19 00:43:51;;;;;;;4.22;2.95;;;;;;;;;;6225204;23;20061;-77
2022/10/19 00:46:17;;;;;;;3.47;3.17;;;;;;;;;;6188228;23;20820;-78
2022/10/19 00:48:43;;;;;;;3.78;3.15;;;;;;;;;;6185671;23;20023;-79
2022/10/19 00:51:09;;;;;;;5.03;3.30;;;;;;;;;;6211844;23;20016;-79
2022/10/19 00:53:34;;;;;;;7.35;3.10;;;;;;;;;;6185512;23;20104;-78
2022/10/19 00:56:01;;;;;;;3.22;2.95;;;;;;;;;;6185107;23;20027;-80
2022/10/19 00:58:27;;;;;;;2.83;2.63;;;;;;;;;;6211562;23;20016;-80
2022/10/19 01:00:53;;;;;;;3.75;3.40;;;;;;;;;;6211365;23;20043;-79
2022/10/19 01:03:19;;;;;;;3.35;3.08;;;;;;;;;;6211187;23;20009;-77
2022/10/19 01:05:44;;;;;;;4.45;3.60;;;;;;;;;;6211630;23;20445;-78
2022/10/19 01:08:10;;;;;;;3.60;3.20;;;;;;;;;;6184154;23;20019;-78
2022/10/19 01:10:36;;;;;;;3.67;3.40;;;;;;;;;;6211402;23;20074;-79
2022/10/19 01:13:20;;;;;;;5.25;3.35;;;;;;;;;;6211044;23;20019;-78
2022/10/19 01:15:52;;;;;;;4.68;3.35;;;;;;;;;;6185104;23;20032;-79
2022/10/19 01:18:19;;;;;;;3.67;3.20;;;;;;;;;;6211361;23;20130;-77
2022/10/19 01:20:51;;;;;;;4.78;3.50;;;;;;;;;;6184957;23;20015;-78
2022/10/19 01:23:36;;;;;;;3.40;3.10;;;;;;;;;;6211006;23;20016;-77
2022/10/19 01:26:14;;;;;;;4.10;3.20;;;;;;;;;;6210484;23;20052;-76
2022/10/19 01:28:52;;;;;;;3.20;2.90;;;;;;;;;;6211287;23;20012;-77
2022/10/19 01:31:40;;;;;;;3.17;2.97;;;;;;;;;;6160020;23;20427;-78
2022/10/19 01:34:08;;;;;;;3.28;2.90;;;;;;;;;;6210925;23;20020;-78
2022/10/19 01:36:37;;;;;;;2.65;2.55;;;;;;;;;;6184806;23;20028;-79
2022/10/19 01:39:09;;;;;;;3.35;3.05;;;;;;;;;;6211028;23;20505;-78
2022/10/19 01:41:53;;;;;;;4.45;3.30;;;;;;;;;;6211081;23;20040;-78
2022/10/19 01:44:19;;;;;;;2.97;2.78;;;;;;;;;;6211025;23;20453;-78
2022/10/19 01:46:54;;;;;;;4.13;3.28;;;;;;;;;;6211029;23;20054;-78
2022/10/19 01:49:33;;;;;;;5.38;3.63;;;;;;;;;;6184544;23;20342;-78
2022/10/19 01:52:01;;;;;;;4.22;3.40;;;;;;;;;;6210753;23;20386;-78
2022/10/19 01:54:29;;;;;;;3.45;3.10;;;;;;;;;;6160045;23;20111;-78
2022/10/19 01:56:55;;;;;;;3.65;2.50;;;;;;;;;;6187326;23;20024;-78
2022/10/19 01:59:21;;;;;;;4.40;2.88;;;;;;;;;;6205335;23;20009;-80
2022/10/19 02:01:47;;;;;;;2.90;2.70;;;;;;;;;;6211637;23;20152;-81
2022/10/19 02:04:14;;;;;;;3.00;2.70;;;;;;;;;;6184720;23;20019;-79
2022/10/19 02:06:40;;;;;;;3.20;3.00;;;;;;;;;;6184232;23;20020;-80
2022/10/19 02:09:06;;;;;;;4.65;3.40;;;;;;;;;;6183856;23;20064;-79
2022/10/19 02:11:32;;;;;;;3.30;3.10;;;;;;;;;;6184228;23;20111;-80
2022/10/19 02:13:59;;;;;;;3.80;3.00;;;;;;;;;;6184026;23;20009;-78
2022/10/19 02:16:35;;;;;;;3.67;3.38;;;;;;;;;;6210744;23;20025;-78
2022/10/19 02:19:01;;;;;;;5.80;2.95;;;;;;;;;;6184270;23;20476;-78
2022/10/19 02:21:27;;;;;;;5.65;2.97;;;;;;;;;;6184527;23;20009;-78
2022/10/19 02:23:53;;;;;;;3.50;3.20;;;;;;;;;;6210938;23;20013;-77
2022/10/19 02:26:18;;;;;;;5.45;3.35;;;;;;;;;;6184164;23;20012;-78
2022/10/19 02:28:44;;;;;;;3.92;3.53;;;;;;;;;;6159663;23;20068;-78
2022/10/19 02:31:10;;;;;;;3.92;3.60;;;;;;;;;;6210548;23;20019;-79
2022/10/19 02:33:37;;;;;;;6.20;3.67;;;;;;;;;;6183808;23;20013;-77
2022/10/19 02:36:03;;;;;;;5.32;3.67;;;;;;;;;;6183990;23;20362;-78
2022/10/19 02:38:29;;;;;;;8.90;3.75;;;;;;;;;;6210572;23;20013;-79
2022/10/19 02:41:11;;;;;;;6.28;3.67;;;;;;;;;;6210817;23;20019;-78
2022/10/19 02:43:38;;;;;;;9.18;3.80;;;;;;;;;;6211897;23;20020;-79
2022/10/19 02:46:10;;;;;;;3.97;3.63;;;;;;;;;;6183933;23;20016;-78
2022/10/19 02:48:35;;;;;;;8.32;3.78;;;;;;;;;;6183987;23;20020;-78
2022/10/19 02:51:02;;;;;;;12.48;4.40;;;;;;;;;;6159220;23;20503;-79
2022/10/19 02:53:27;;;;;;;9.35;4.20;;;;;;;;;;6183641;23;20406;-79
2022/10/19 02:55:53;;;;;;;4.93;4.07;;;;;;;;;;6183958;23;20063;-79
2022/10/19 02:58:19;;;;;;;5.20;4.07;;;;;;;;;;6210024;23;20062;-80
2022/10/19 03:00:46;;;;;;;5.88;4.15;;;;;;;;;;6210477;23;20039;-80
2022/10/19 03:03:11;;;;;;;12.90;4.07;;;;;;;;;;6183528;23;20083;-81
2022/10/19 03:05:37;;;;;;;8.50;4.47;;;;;;;;;;6183104;23;20015;-80
2022/10/19 03:08:03;;;;;;;6.72;4.35;;;;;;;;;;6209950;23;20017;-79
2022/10/19 03:10:30;;;;;;;11.38;4.43;;;;;;;;;;6210327;23;20057;-78
2022/10/19 03:12:56;;;;;;;6.97;4.50;;;;;;;;;;6210276;23;20044;-80
2022/10/19 03:15:25;;;;;;;7.53;4.85;;;;;;;;;;6209796;23;20009;-78
2022/10/19 03:17:52;;;;;;;6.18;5.10;;;;;;;;;;6188790;23;20016;-82
2022/10/19 03:20:18;;;;;;;12.02;4.70;;;;;;;;;;6188112;23;20019;-83
2022/10/19 03:22:44;;;;;;;8.27;4.38;;;;;;;;;;6213960;23;20013;-81
2022/10/19 03:25:09;;;;;;;7.63;4.72;;;;;;;;;;6184416;23;20016;-81
2022/10/19 03:27:35;;;;;;;9.90;6.10;;;;;;;;;;6211419;23;20012;-82
2022/10/19 03:30:02;;;;;;;6.47;5.20;;;;;;;;;;6184939;23;20092;-81
2022/10/19 03:32:28;;;;;;;4.85;4.45;;;;;;;;;;6183974;23;20017;-81
2022/10/19 03:34:54;;;;;;;9.55;5.13;;;;;;;;;;6211285;23;20016;-79
2022/10/19 03:37:20;;;;;;;12.07;5.03;;;;;;;;;;6210174;23;20346;-82
2022/10/19 03:39:46;;;;;;;8.20;4.93;;;;;;;;;;6210559;23;20016;-81
2022/10/19 03:42:12;;;;;;;7.32;5.40;;;;;;;;;;6183674;23;20023;-80
2022/10/19 03:44:38;;;;;;;9.70;5.30;;;;;;;;;;6211121;23;20008;-83
2022/10/19 03:47:04;;;;;;;6.47;5.50;;;;;;;;;;6211329;23;20029;-83
2022/10/19 03:49:30;;;;;;;9.52;5.22;;;;;;;;;;6185999;23;20040;-83
2022/10/19 03:51:56;;;;;;;11.00;5.90;;;;;;;;;;6214652;23;20019;-79
2022/10/19 03:54:22;;;;;;;9.13;6.35;;;;;;;;;;6187836;23;20013;-81
2022/10/19 03:56:48;;;;;;;7.32;6.32;;;;;;;;;;6185968;23;20147;-80
2022/10/19 03:59:14;;;;;;;8.50;6.38;;;;;;;;;;6212256;23;20012;-81
2022/10/19 04:01:41;;;;;;;8.63;6.75;;;;;;;;;;6212441;23;20020;-80
2022/10/19 04:04:10;;;;;;;8.35;6.88;;;;;;;;;;6212388;23;20009;-81
2022/10/19 04:06:37;;;;;;;10.57;8.32;;;;;;;;;;6213018;23;20012;-82
2022/10/19 04:09:03;;;;;;;8.85;7.57;;;;;;;;;;6186453;23;20008;-80
2022/10/19 04:11:29;;;;;;;9.32;7.95;;;;;;;;;;6186561;23;20019;-81
2022/10/19 04:13:56;;;;;;;9.50;8.55;;;;;;;;;;6212507;23;20020;-80
2022/10/19 04:16:21;;;;;;;11.27;9.00;;;;;;;;;;6213350;23;20427;-80
2022/10/19 04:18:48;;;;;;;10.07;9.15;;;;;;;;;;6199116;23;20008;-81
2022/10/19 04:21:23;;;;;;;15.10;10.40;;;;;;;;;;6221098;23;20067;-79
2022/10/19 04:23:50;;;;;;;15.65;10.40;;;;;;;;;;6220717;23;20015;-80
2022/10/19 04:26:15;;;;;;;15.55;12.05;;;;;;;;;;6216229;23;20631;-78
2022/10/19 04:28:41;;;;;;;13.98;12.05;;;;;;;;;;6188529;23;20083;-79
2022/10/19 04:31:08;;;;;;;16.02;12.73;;;;;;;;;;6214627;23;20016;-80
2022/10/19 04:33:33;;;;;;;16.98;14.05;;;;;;;;;;6214331;23;20013;-79
2022/10/19 04:36:03;;;;;;;18.80;12.70;;;;;;;;;;6212583;23;20373;-79
2022/10/19 04:38:30;;;;;;;17.50;12.50;;;;;;;;;;6212871;23;20017;-80
2022/10/19 04:41:07;;;;;;;14.30;12.00;;;;;;;;;;6211635;23;20013;-79
2022/10/19 04:43:33;;;;;;;12.02;9.85;;;;;;;;;;6212130;23;20016;-81
2022/10/19 04:46:06;;;;;;;13.18;11.10;;;;;;;;;;6213221;23;20016;-81
2022/10/19 04:48:32;;;;;;;11.75;10.43;;;;;;;;;;6187696;23;20025;-83
2022/10/19 04:50:58;;;;;;;10.05;9.02;;;;;;;;;;6190283;23;20008;-83
2022/10/19 04:53:24;;;;;;;12.65;9.55;;;;;;;;;;6188911;23;20061;-82
2022/10/19 04:55:50;;;;;;;10.60;9.55;;;;;;;;;;6162862;23;20020;-83
2022/10/19 04:58:16;;;;;;;7.78;7.07;;;;;;;;;;6188601;23;20009;-83
2022/10/19 05:00:42;;;;;;;12.60;9.30;;;;;;;;;;6187478;23;20024;-83
2022/10/19 05:03:08;;;;;;;13.43;10.52;;;;;;;;;;6187229;23;20016;-81
2022/10/19 05:05:34;;;;;;;10.45;9.40;;;;;;;;;;6187627;23;20013;-82
2022/10/19 05:08:00;;;;;;;11.20;10.10;;;;;;;;;;6189890;23;20017;-83
2022/10/19 05:10:26;;;;;;;10.50;9.50;;;;;;;;;;6167477;23;20009;-83
2022/10/19 05:12:52;;;;;;;12.70;9.30;;;;;;;;;;6183756;23;20074;-82
2022/10/19 05:15:18;;;;;;;11.63;10.50;;;;;;;;;;6182805;23;20446;-84
2022/10/19 05:17:44;;;;;;;23.00;11.02;;;;;;;;;;6183381;23;20017;-81
